sensor_id;sensor_type;location;lat;lon;timestamp;P1;durP1;ratioP1;P2;durP2;ratioP2
10896;SDS011;5501;51.176;6.470;2023-06-19T00:02:30;5.78;;;2.55;;
10896;SDS011;5501;51.176;6.470;2023-06-19T00:07:32;3.58;;;2.50;;
10896;SDS011;5501;51.176;6.470;2023-06-19T00:12:33;2.47;;;2.28;;
10896;SDS011;5501;51.176;6.470;2023-06-19T00:17:35;2.35;;;2.10;;
10896;SDS011;5501;51.176;6.470;2023-06-19T00:22:39;2.40;;;2.20;;
10896;SDS011;5501;51.176;6.470;2023-06-19T00:27:41;2.63;;;2.25;;
10896;SDS011;5501;51.176;6.470;2023-06-19T00:32:42;5.15;;;2.67;;
10896;SDS011;5501;51.176;6.470;2023-06-19T00:37:51;2.87;;;2.50;;
10896;SDS011;5501;51.176;6.470;2023-06-19T00:42:52;4.55;;;2.58;;
10896;SDS011;5501;51.176;6.470;2023-06-19T00:47:55;2.95;;;2.50;;
10896;SDS011;5501;51.176;6.470;2023-06-19T00:52:58;3.30;;;2.40;;
10896;SDS011;5501;51.176;6.470;2023-06-19T00:58:00;2.58;;;2.38;;
10896;SDS011;5501;51.176;6.470;2023-06-19T01:03:03;2.78;;;2.20;;
10896;SDS011;5501;51.176;6.470;2023-06-19T01:08:19;2.60;;;2.20;;
10896;SDS011;5501;51.176;6.470;2023-06-19T01:13:50;2.50;;;2.30;;
10896;SDS011;5501;51.176;6.470;2023-06-19T01:18:57;2.50;;;2.30;;
10896;SDS011;5501;51.176;6.470;2023-06-19T01:23:59;5.70;;;2.65;;
10896;SDS011;5501;51.176;6.470;2023-06-19T01:29:00;3.13;;;2.63;;
10896;SDS011;5501;51.176;6.470;2023-06-19T01:34:03;2.83;;;2.47;;
10896;SDS011;5501;51.176;6.470;2023-06-19T01:39:07;2.50;;;2.30;;
10896;SDS011;5501;51.176;6.470;2023-06-19T01:44:11;6.10;;;2.60;;
10896;SDS011;5501;51.176;6.470;2023-06-19T01:49:13;2.95;;;2.65;;
10896;SDS011;5501;51.176;6.470;2023-06-19T01:54:14;3.30;;;2.67;;
10896;SDS011;5501;51.176;6.470;2023-06-19T01:59:16;2.97;;;2.38;;
10896;SDS011;5501;51.176;6.470;2023-06-19T02:04:17;3.22;;;2.80;;
10896;SDS011;5501;51.176;6.470;2023-06-19T02:09:19;3.67;;;2.45;;
10896;SDS011;5501;51.176;6.470;2023-06-19T02:14:20;2.63;;;2.42;;
10896;SDS011;5501;51.176;6.470;2023-06-19T02:19:22;3.53;;;2.75;;
10896;SDS011;5501;51.176;6.470;2023-06-19T02:24:24;3.08;;;2.30;;
10896;SDS011;5501;51.176;6.470;2023-06-19T02:29:26;2.78;;;2.53;;
10896;SDS011;5501;51.176;6.470;2023-06-19T02:34:28;2.25;;;2.05;;
10896;SDS011;5501;51.176;6.470;2023-06-19T02:39:29;1.98;;;1.80;;
10896;SDS011;5501;51.176;6.470;2023-06-19T02:44:31;2.35;;;2.15;;
10896;SDS011;5501;51.176;6.470;2023-06-19T02:49:33;2.00;;;1.80;;
10896;SDS011;5501;51.176;6.470;2023-06-19T02:54:34;2.63;;;2.17;;
10896;SDS011;5501;51.176;6.470;2023-06-19T02:59:36;2.17;;;1.98;;
10896;SDS011;5501;51.176;6.470;2023-06-19T03:04:37;2.40;;;1.90;;
10896;SDS011;5501;51.176;6.470;2023-06-19T03:09:39;2.13;;;1.90;;
10896;SDS011;5501;51.176;6.470;2023-06-19T03:14:41;3.00;;;1.63;;
10896;SDS011;5501;51.176;6.470;2023-06-19T03:19:43;1.77;;;1.60;;
10896;SDS011;5501;51.176;6.470;2023-06-19T03:24:45;2.55;;;2.05;;
10896;SDS011;5501;51.176;6.470;2023-06-19T03:29:55;3.00;;;2.55;;
10896;SDS011;5501;51.176;6.470;2023-06-19T03:35:06;2.03;;;1.67;;
10896;SDS011;5501;51.176;6.470;2023-06-19T03:40:13;3.33;;;1.70;;
10896;SDS011;5501;51.176;6.470;2023-06-19T03:45:18;1.85;;;1.52;;
10896;SDS011;5501;51.176;6.470;2023-06-19T03:50:19;2.67;;;2.00;;
10896;SDS011;5501;51.176;6.470;2023-06-19T03:55:24;2.38;;;1.80;;
10896;SDS011;5501;51.176;6.470;2023-06-19T04:00:26;4.38;;;2.00;;
10896;SDS011;5501;51.176;6.470;2023-06-19T04:05:28;5.97;;;1.52;;
10896;SDS011;5501;51.176;6.470;2023-06-19T04:10:30;3.88;;;1.80;;
10896;SDS011;5501;51.176;6.470;2023-06-19T04:15:34;1.90;;;1.70;;
10896;SDS011;5501;51.176;6.470;2023-06-19T04:20:37;2.20;;;1.80;;
10896;SDS011;5501;51.176;6.470;2023-06-19T04:25:38;2.40;;;1.70;;
10896;SDS011;5501;51.176;6.470;2023-06-19T04:30:40;2.15;;;1.90;;
10896;SDS011;5501;51.176;6.470;2023-06-19T04:35:41;2.15;;;1.80;;
10896;SDS011;5501;51.176;6.470;2023-06-19T04:40:43;2.42;;;1.50;;
10896;SDS011;5501;51.176;6.470;2023-06-19T04:45:44;2.28;;;1.40;;
10896;SDS011;5501;51.176;6.470;2023-06-19T04:50:47;1.95;;;1.60;;
10896;SDS011;5501;51.176;6.470;2023-06-19T04:55:49;1.50;;;1.40;;
10896;SDS011;5501;51.176;6.470;2023-06-19T05:00:51;1.65;;;1.42;;
10896;SDS011;5501;51.176;6.470;2023-06-19T05:05:53;1.77;;;1.50;;
10896;SDS011;5501;51.176;6.470;2023-06-19T05:10:55;1.52;;;1.42;;
10896;SDS011;5501;51.176;6.470;2023-06-19T05:15:57;2.25;;;1.50;;
10896;SDS011;5501;51.176;6.470;2023-06-19T05:20:59;3.80;;;1.80;;
10896;SDS011;5501;51.176;6.470;2023-06-19T05:26:00;1.60;;;1.48;;
10896;SDS011;5501;51.176;6.470;2023-06-19T05:31:02;2.53;;;2.20;;
10896;SDS011;5501;51.176;6.470;2023-06-19T05:36:05;2.30;;;1.48;;
10896;SDS011;5501;51.176;6.470;2023-06-19T05:41:07;1.60;;;1.50;;
10896;SDS011;5501;51.176;6.470;2023-06-19T05:46:09;1.90;;;1.52;;
10896;SDS011;5501;51.176;6.470;2023-06-19T05:51:11;2.20;;;1.58;;
10896;SDS011;5501;51.176;6.470;2023-06-19T05:56:12;1.67;;;1.50;;
10896;SDS011;5501;51.176;6.470;2023-06-19T06:01:14;3.75;;;1.40;;
10896;SDS011;5501;51.176;6.470;2023-06-19T06:06:15;1.80;;;1.48;;
10896;SDS011;5501;51.176;6.470;2023-06-19T06:11:17;1.58;;;1.40;;
10896;SDS011;5501;51.176;6.470;2023-06-19T06:16:19;4.55;;;1.55;;
10896;SDS011;5501;51.176;6.470;2023-06-19T06:21:20;2.65;;;1.70;;
10896;SDS011;5501;51.176;6.470;2023-06-19T06:26:22;2.05;;;1.58;;
10896;SDS011;5501;51.176;6.470;2023-06-19T06:31:23;3.58;;;1.65;;
10896;SDS011;5501;51.176;6.470;2023-06-19T06:36:25;2.63;;;1.55;;
10896;SDS011;5501;51.176;6.470;2023-06-19T06:41:38;1.42;;;1.33;;
10896;SDS011;5501;51.176;6.470;2023-06-19T06:46:39;1.88;;;1.42;;
10896;SDS011;5501;51.176;6.470;2023-06-19T06:51:41;1.42;;;1.33;;
10896;SDS011;5501;51.176;6.470;2023-06-19T06:56:43;1.80;;;1.70;;
10896;SDS011;5501;51.176;6.470;2023-06-19T07:01:48;4.53;;;1.80;;
10896;SDS011;5501;51.176;6.470;2023-06-19T07:06:50;1.67;;;1.58;;
10896;SDS011;5501;51.176;6.470;2023-06-19T07:11:52;2.38;;;1.90;;
10896;SDS011;5501;51.176;6.470;2023-06-19T07:16:54;2.78;;;1.83;;
10896;SDS011;5501;51.176;6.470;2023-06-19T07:21:55;2.65;;;1.95;;
10896;SDS011;5501;51.176;6.470;2023-06-19T07:26:57;2.20;;;1.52;;
10896;SDS011;5501;51.176;6.470;2023-06-19T07:31:59;1.95;;;1.77;;
10896;SDS011;5501;51.176;6.470;2023-06-19T07:37:05;2.85;;;2.00;;
10896;SDS011;5501;51.176;6.470;2023-06-19T07:42:06;2.10;;;1.90;;
10896;SDS011;5501;51.176;6.470;2023-06-19T07:47:08;3.95;;;1.95;;
10896;SDS011;5501;51.176;6.470;2023-06-19T07:52:10;5.60;;;2.22;;
10896;SDS011;5501;51.176;6.470;2023-06-19T07:57:11;2.72;;;1.52;;
10896;SDS011;5501;51.176;6.470;2023-06-19T08:02:13;3.33;;;1.90;;
10896;SDS011;5501;51.176;6.470;2023-06-19T08:07:15;2.60;;;1.75;;
10896;SDS011;5501;51.176;6.470;2023-06-19T08:12:17;4.68;;;1.90;;
10896;SDS011;5501;51.176;6.470;2023-06-19T08:17:18;2.30;;;1.83;;
10896;SDS011;5501;51.176;6.470;2023-06-19T08:22:20;2.88;;;2.00;;
10896;SDS011;5501;51.176;6.470;2023-06-19T08:27:23;3.13;;;1.80;;
10896;SDS011;5501;51.176;6.470;2023-06-19T08:32:25;2.03;;;1.75;;
10896;SDS011;5501;51.176;6.470;2023-06-19T08:37:26;3.92;;;2.00;;
10896;SDS011;5501;51.176;6.470;2023-06-19T08:42:28;2.83;;;2.10;;
10896;SDS011;5501;51.176;6.470;2023-06-19T08:47:30;3.15;;;1.67;;
10896;SDS011;5501;51.176;6.470;2023-06-19T08:52:33;7.72;;;2.17;;
10896;SDS011;5501;51.176;6.470;2023-06-19T08:57:39;4.15;;;1.92;;
10896;SDS011;5501;51.176;6.470;2023-06-19T09:02:42;2.13;;;1.80;;
10896;SDS011;5501;51.176;6.470;2023-06-19T09:07:58;3.15;;;1.80;;
10896;SDS011;5501;51.176;6.470;2023-06-19T09:13:09;2.33;;;2.00;;
10896;SDS011;5501;51.176;6.470;2023-06-19T09:18:11;6.28;;;1.80;;
10896;SDS011;5501;51.176;6.470;2023-06-19T09:23:17;2.80;;;1.77;;
10896;SDS011;5501;51.176;6.470;2023-06-19T09:28:22;5.50;;;1.80;;
10896;SDS011;5501;51.176;6.470;2023-06-19T09:33:26;2.22;;;1.83;;
10896;SDS011;5501;51.176;6.470;2023-06-19T09:38:30;3.45;;;2.00;;
10896;SDS011;5501;51.176;6.470;2023-06-19T09:43:40;2.38;;;1.65;;
10896;SDS011;5501;51.176;6.470;2023-06-19T09:48:45;1.95;;;1.60;;
10896;SDS011;5501;51.176;6.470;2023-06-19T09:53:49;2.42;;;1.83;;
10896;SDS011;5501;51.176;6.470;2023-06-19T09:58:52;2.28;;;1.73;;
10896;SDS011;5501;51.176;6.470;2023-06-19T10:04:06;2.20;;;1.85;;
10896;SDS011;5501;51.176;6.470;2023-06-19T10:09:09;2.03;;;1.83;;
10896;SDS011;5501;51.176;6.470;2023-06-19T10:14:11;2.03;;;1.83;;
10896;SDS011;5501;51.176;6.470;2023-06-19T10:19:16;2.13;;;1.90;;
10896;SDS011;5501;51.176;6.470;2023-06-19T10:24:20;2.72;;;2.30;;
10896;SDS011;5501;51.176;6.470;2023-06-19T10:29:22;3.20;;;1.98;;
10896;SDS011;5501;51.176;6.470;2023-06-19T10:34:32;2.72;;;2.30;;
10896;SDS011;5501;51.176;6.470;2023-06-19T10:39:35;3.13;;;2.22;;
10896;SDS011;5501;51.176;6.470;2023-06-19T10:44:36;2.80;;;2.47;;
10896;SDS011;5501;51.176;6.470;2023-06-19T10:49:39;5.38;;;2.35;;
10896;SDS011;5501;51.176;6.470;2023-06-19T10:54:40;2.95;;;2.03;;
10896;SDS011;5501;51.176;6.470;2023-06-19T10:59:42;3.00;;;2.47;;
10896;SDS011;5501;51.176;6.470;2023-06-19T11:04:43;4.13;;;2.85;;
10896;SDS011;5501;51.176;6.470;2023-06-19T11:09:45;2.97;;;2.13;;
10896;SDS011;5501;51.176;6.470;2023-06-19T11:14:50;3.78;;;1.90;;
10896;SDS011;5501;51.176;6.470;2023-06-19T11:19:51;2.85;;;2.55;;
10896;SDS011;5501;51.176;6.470;2023-06-19T11:24:53;2.80;;;2.25;;
10896;SDS011;5501;51.176;6.470;2023-06-19T11:29:55;2.35;;;2.10;;
10896;SDS011;5501;51.176;6.470;2023-06-19T11:35:04;5.32;;;2.40;;
10896;SDS011;5501;51.176;6.470;2023-06-19T11:40:10;4.30;;;2.15;;
10896;SDS011;5501;51.176;6.470;2023-06-19T11:45:17;4.10;;;2.25;;
10896;SDS011;5501;51.176;6.470;2023-06-19T11:50:19;2.50;;;2.30;;
10896;SDS011;5501;51.176;6.470;2023-06-19T11:55:25;4.88;;;2.22;;
10896;SDS011;5501;51.176;6.470;2023-06-19T12:00:27;6.25;;;2.58;;
10896;SDS011;5501;51.176;6.470;2023-06-19T12:05:29;3.03;;;2.45;;
10896;SDS011;5501;51.176;6.470;2023-06-19T12:10:31;12.18;;;5.10;;
10896;SDS011;5501;51.176;6.470;2023-06-19T12:15:32;5.57;;;3.33;;
10896;SDS011;5501;51.176;6.470;2023-06-19T12:20:37;5.88;;;2.40;;
10896;SDS011;5501;51.176;6.470;2023-06-19T12:25:39;2.28;;;2.03;;
10896;SDS011;5501;51.176;6.470;2023-06-19T12:30:40;3.50;;;2.83;;
10896;SDS011;5501;51.176;6.470;2023-06-19T12:35:42;4.90;;;2.25;;
10896;SDS011;5501;51.176;6.470;2023-06-19T12:40:43;2.85;;;2.55;;
10896;SDS011;5501;51.176;6.470;2023-06-19T12:45:45;2.15;;;1.90;;
10896;SDS011;5501;51.176;6.470;2023-06-19T12:50:47;2.88;;;2.30;;
10896;SDS011;5501;51.176;6.470;2023-06-19T12:55:48;3.20;;;2.17;;
10896;SDS011;5501;51.176;6.470;2023-06-19T13:01:02;2.85;;;2.20;;
10896;SDS011;5501;51.176;6.470;2023-06-19T13:06:03;2.75;;;2.08;;
10896;SDS011;5501;51.176;6.470;2023-06-19T13:11:05;4.85;;;2.30;;
10896;SDS011;5501;51.176;6.470;2023-06-19T13:16:07;3.80;;;2.28;;
10896;SDS011;5501;51.176;6.470;2023-06-19T13:21:08;2.97;;;2.30;;
10896;SDS011;5501;51.176;6.470;2023-06-19T13:26:10;7.72;;;2.50;;
10896;SDS011;5501;51.176;6.470;2023-06-19T13:31:11;3.17;;;2.15;;
10896;SDS011;5501;51.176;6.470;2023-06-19T13:36:13;3.63;;;2.67;;
10896;SDS011;5501;51.176;6.470;2023-06-19T13:41:15;2.90;;;2.22;;
10896;SDS011;5501;51.176;6.470;2023-06-19T13:46:16;4.25;;;2.58;;
10896;SDS011;5501;51.176;6.470;2023-06-19T13:51:18;2.47;;;2.28;;
10896;SDS011;5501;51.176;6.470;2023-06-19T13:56:21;2.50;;;2.25;;
10896;SDS011;5501;51.176;6.470;2023-06-19T14:01:24;4.03;;;2.13;;
10896;SDS011;5501;51.176;6.470;2023-06-19T14:06:27;2.58;;;2.03;;
10896;SDS011;5501;51.176;6.470;2023-06-19T14:11:28;3.10;;;2.00;;
10896;SDS011;5501;51.176;6.470;2023-06-19T14:16:30;2.92;;;1.98;;
10896;SDS011;5501;51.176;6.470;2023-06-19T14:21:32;3.22;;;2.17;;
10896;SDS011;5501;51.176;6.470;2023-06-19T14:26:33;2.35;;;1.90;;
10896;SDS011;5501;51.176;6.470;2023-06-19T14:31:35;2.13;;;1.92;;
10896;SDS011;5501;51.176;6.470;2023-06-19T14:36:37;3.40;;;2.08;;
10896;SDS011;5501;51.176;6.470;2023-06-19T14:41:39;5.30;;;1.88;;
10896;SDS011;5501;51.176;6.470;2023-06-19T14:46:41;3.22;;;2.58;;
10896;SDS011;5501;51.176;6.470;2023-06-19T14:51:42;2.10;;;1.88;;
10896;SDS011;5501;51.176;6.470;2023-06-19T14:56:44;2.05;;;1.75;;
10896;SDS011;5501;51.176;6.470;2023-06-19T15:01:49;2.88;;;1.90;;
10896;SDS011;5501;51.176;6.470;2023-06-19T15:06:50;2.15;;;1.95;;
10896;SDS011;5501;51.176;6.470;2023-06-19T15:11:52;3.15;;;2.00;;
10896;SDS011;5501;51.176;6.470;2023-06-19T15:16:54;2.45;;;1.60;;
10896;SDS011;5501;51.176;6.470;2023-06-19T15:21:55;3.72;;;1.98;;
10896;SDS011;5501;51.176;6.470;2023-06-19T15:26:57;3.25;;;2.20;;
10896;SDS011;5501;51.176;6.470;2023-06-19T15:32:00;2.63;;;2.00;;
10896;SDS011;5501;51.176;6.470;2023-06-19T15:37:06;1.70;;;1.60;;
10896;SDS011;5501;51.176;6.470;2023-06-19T15:42:07;4.20;;;1.88;;
10896;SDS011;5501;51.176;6.470;2023-06-19T15:47:09;3.13;;;2.13;;
10896;SDS011;5501;51.176;6.470;2023-06-19T15:52:11;3.90;;;2.13;;
10896;SDS011;5501;51.176;6.470;2023-06-19T15:57:12;5.82;;;2.38;;
10896;SDS011;5501;51.176;6.470;2023-06-19T16:02:15;3.00;;;2.40;;
10896;SDS011;5501;51.176;6.470;2023-06-19T16:07:16;2.85;;;2.20;;
10896;SDS011;5501;51.176;6.470;2023-06-19T16:12:18;6.03;;;2.20;;
10896;SDS011;5501;51.176;6.470;2023-06-19T16:17:19;3.42;;;2.13;;
10896;SDS011;5501;51.176;6.470;2023-06-19T16:22:21;2.28;;;1.80;;
10896;SDS011;5501;51.176;6.470;2023-06-19T16:27:22;2.35;;;1.90;;
10896;SDS011;5501;51.176;6.470;2023-06-19T16:32:24;2.13;;;1.83;;
10896;SDS011;5501;51.176;6.470;2023-06-19T16:37:26;2.40;;;1.90;;
10896;SDS011;5501;51.176;6.470;2023-06-19T16:42:27;4.22;;;2.05;;
10896;SDS011;5501;51.176;6.470;2023-06-19T16:47:29;2.42;;;1.90;;
10896;SDS011;5501;51.176;6.470;2023-06-19T16:52:30;3.80;;;2.00;;
10896;SDS011;5501;51.176;6.470;2023-06-19T16:57:32;2.72;;;1.98;;
10896;SDS011;5501;51.176;6.470;2023-06-19T17:02:34;2.45;;;1.60;;
10896;SDS011;5501;51.176;6.470;2023-06-19T17:07:35;2.53;;;2.10;;
10896;SDS011;5501;51.176;6.470;2023-06-19T17:12:39;2.30;;;1.83;;
10896;SDS011;5501;51.176;6.470;2023-06-19T17:17:40;2.17;;;1.95;;
10896;SDS011;5501;51.176;6.470;2023-06-19T17:22:42;2.53;;;1.75;;
10896;SDS011;5501;51.176;6.470;2023-06-19T17:27:43;3.10;;;1.55;;
10896;SDS011;5501;51.176;6.470;2023-06-19T17:32:45;3.30;;;2.20;;
10896;SDS011;5501;51.176;6.470;2023-06-19T17:37:47;4.38;;;1.90;;
10896;SDS011;5501;51.176;6.470;2023-06-19T17:42:49;2.60;;;2.35;;
10896;SDS011;5501;51.176;6.470;2023-06-19T17:47:50;2.83;;;2.10;;
10896;SDS011;5501;51.176;6.470;2023-06-19T17:52:52;4.65;;;1.95;;
10896;SDS011;5501;51.176;6.470;2023-06-19T17:57:54;3.70;;;2.33;;
10896;SDS011;5501;51.176;6.470;2023-06-19T18:02:55;3.40;;;2.00;;
10896;SDS011;5501;51.176;6.470;2023-06-19T18:07:57;4.78;;;2.05;;
10896;SDS011;5501;51.176;6.470;2023-06-19T18:12:58;2.92;;;2.13;;
10896;SDS011;5501;51.176;6.470;2023-06-19T18:18:00;2.63;;;1.95;;
10896;SDS011;5501;51.176;6.470;2023-06-19T18:23:02;2.30;;;1.90;;
10896;SDS011;5501;51.176;6.470;2023-06-19T18:28:03;2.95;;;2.05;;
10896;SDS011;5501;51.176;6.470;2023-06-19T18:33:05;2.45;;;2.20;;
10896;SDS011;5501;51.176;6.470;2023-06-19T18:38:06;2.42;;;2.20;;
10896;SDS011;5501;51.176;6.470;2023-06-19T18:43:08;2.58;;;2.22;;
10896;SDS011;5501;51.176;6.470;2023-06-19T18:48:10;3.28;;;2.55;;
10896;SDS011;5501;51.176;6.470;2023-06-19T18:53:11;2.97;;;2.17;;
10896;SDS011;5501;51.176;6.470;2023-06-19T18:58:13;3.70;;;2.13;;
10896;SDS011;5501;51.176;6.470;2023-06-19T19:03:14;4.20;;;2.42;;
10896;SDS011;5501;51.176;6.470;2023-06-19T19:08:16;2.58;;;2.10;;
10896;SDS011;5501;51.176;6.470;2023-06-19T19:13:18;3.55;;;2.28;;
10896;SDS011;5501;51.176;6.470;2023-06-19T19:18:19;4.00;;;2.33;;
10896;SDS011;5501;51.176;6.470;2023-06-19T19:23:21;3.83;;;2.50;;
10896;SDS011;5501;51.176;6.470;2023-06-19T19:28:22;5.00;;;2.40;;
10896;SDS011;5501;51.176;6.470;2023-06-19T19:33:24;4.47;;;2.50;;
10896;SDS011;5501;51.176;6.470;2023-06-19T19:38:25;3.25;;;2.45;;
10896;SDS011;5501;51.176;6.470;2023-06-19T19:43:27;3.47;;;2.55;;
10896;SDS011;5501;51.176;6.470;2023-06-19T19:48:28;3.55;;;2.67;;
10896;SDS011;5501;51.176;6.470;2023-06-19T19:53:30;4.22;;;2.90;;
10896;SDS011;5501;51.176;6.470;2023-06-19T19:58:34;3.65;;;2.47;;
10896;SDS011;5501;51.176;6.470;2023-06-19T20:03:37;4.65;;;2.47;;
10896;SDS011;5501;51.176;6.470;2023-06-19T20:08:42;3.03;;;2.67;;
10896;SDS011;5501;51.176;6.470;2023-06-19T20:13:44;4.20;;;2.40;;
10896;SDS011;5501;51.176;6.470;2023-06-19T20:18:46;3.28;;;2.47;;
10896;SDS011;5501;51.176;6.470;2023-06-19T20:23:48;4.03;;;2.53;;
10896;SDS011;5501;51.176;6.470;2023-06-19T20:28:49;2.60;;;2.40;;
10896;SDS011;5501;51.176;6.470;2023-06-19T20:33:51;5.30;;;2.95;;
10896;SDS011;5501;51.176;6.470;2023-06-19T20:38:52;3.53;;;2.60;;
10896;SDS011;5501;51.176;6.470;2023-06-19T20:43:54;6.47;;;2.75;;
10896;SDS011;5501;51.176;6.470;2023-06-19T20:48:55;3.20;;;2.78;;
10896;SDS011;5501;51.176;6.470;2023-06-19T20:53:57;4.60;;;2.90;;
10896;SDS011;5501;51.176;6.470;2023-06-19T20:58:58;5.78;;;2.80;;
10896;SDS011;5501;51.176;6.470;2023-06-19T21:04:00;3.42;;;2.47;;
10896;SDS011;5501;51.176;6.470;2023-06-19T21:09:02;3.53;;;3.03;;
10896;SDS011;5501;51.176;6.470;2023-06-19T21:14:05;5.93;;;3.65;;
10896;SDS011;5501;51.176;6.470;2023-06-19T21:19:07;3.13;;;2.75;;
10896;SDS011;5501;51.176;6.470;2023-06-19T21:24:09;4.95;;;2.97;;
10896;SDS011;5501;51.176;6.470;2023-06-19T21:29:10;2.95;;;2.25;;
10896;SDS011;5501;51.176;6.470;2023-06-19T21:34:12;3.72;;;2.70;;
10896;SDS011;5501;51.176;6.470;2023-06-19T21:39:13;6.15;;;3.05;;
10896;SDS011;5501;51.176;6.470;2023-06-19T21:44:15;4.53;;;2.88;;
10896;SDS011;5501;51.176;6.470;2023-06-19T21:49:16;5.93;;;2.78;;
10896;SDS011;5501;51.176;6.470;2023-06-19T21:54:18;3.28;;;2.78;;
10896;SDS011;5501;51.176;6.470;2023-06-19T21:59:19;3.70;;;2.75;;
10896;SDS011;5501;51.176;6.470;2023-06-19T22:04:21;4.65;;;2.80;;
10896;SDS011;5501;51.176;6.470;2023-06-19T22:09:22;4.97;;;2.67;;
10896;SDS011;5501;51.176;6.470;2023-06-19T22:14:24;3.72;;;2.70;;
10896;SDS011;5501;51.176;6.470;2023-06-19T22:19:25;4.57;;;3.15;;
10896;SDS011;5501;51.176;6.470;2023-06-19T22:24:27;4.97;;;2.95;;
10896;SDS011;5501;51.176;6.470;2023-06-19T22:29:29;4.93;;;3.15;;
10896;SDS011;5501;51.176;6.470;2023-06-19T22:34:30;8.35;;;3.08;;
10896;SDS011;5501;51.176;6.470;2023-06-19T22:39:32;3.38;;;3.08;;
10896;SDS011;5501;51.176;6.470;2023-06-19T22:44:34;4.90;;;2.85;;
10896;SDS011;5501;51.176;6.470;2023-06-19T22:49:35;4.80;;;3.45;;
10896;SDS011;5501;51.176;6.470;2023-06-19T22:54:37;5.15;;;3.35;;
10896;SDS011;5501;51.176;6.470;2023-06-19T22:59:38;3.28;;;2.75;;
10896;SDS011;5501;51.176;6.470;2023-06-19T23:04:40;5.55;;;3.30;;
10896;SDS011;5501;51.176;6.470;2023-06-19T23:09:42;5.00;;;3.42;;
10896;SDS011;5501;51.176;6.470;2023-06-19T23:14:43;5.32;;;3.40;;
10896;SDS011;5501;51.176;6.470;2023-06-19T23:19:45;4.28;;;3.28;;
10896;SDS011;5501;51.176;6.470;2023-06-19T23:24:46;5.03;;;3.30;;
10896;SDS011;5501;51.176;6.470;2023-06-19T23:29:48;3.50;;;3.15;;
10896;SDS011;5501;51.176;6.470;2023-06-19T23:34:52;4.32;;;3.58;;
10896;SDS011;5501;51.176;6.470;2023-06-19T23:39:53;4.10;;;3.70;;
10896;SDS011;5501;51.176;6.470;2023-06-19T23:44:56;4.70;;;3.45;;
10896;SDS011;5501;51.176;6.470;2023-06-19T23:49:58;5.22;;;3.70;;
10896;SDS011;5501;51.176;6.470;2023-06-19T23:54:59;5.63;;;3.53;;
